createdAt,value
2018-12-12T00:01:01.443Z,94.36
2018-12-12T00:03:33.693Z,94.31
2018-12-12T00:06:05.918Z,94.34
2018-12-12T00:08:36.370Z,94.38
2018-12-12T00:11:06.618Z,94.36
2018-12-12T00:13:41.626Z,94.34
2018-12-12T00:16:11.835Z,93.82
2018-12-12T00:18:43.334Z,94.27
2018-12-12T00:21:13.609Z,94.38
2018-12-12T00:26:20.483Z,94.30
2018-12-12T00:28:50.453Z,94.46
2018-12-12T00:31:21.017Z,94.36
2018-12-12T00:33:52.528Z,94.44
2018-12-12T00:36:23.148Z,94.66
2018-12-12T00:41:30.526Z,94.60
2018-12-12T00:44:00.449Z,94.60
2018-12-12T00:46:31.998Z,94.52
2018-12-12T00:49:02.473Z,94.55
2018-12-12T00:51:33.786Z,94.89
2018-12-12T00:54:03.912Z,94.64
2018-12-12T00:56:34.211Z,94.54
2018-12-12T00:59:05.521Z,94.37
2018-12-12T01:01:35.750Z,94.53
2018-12-12T01:04:05.832Z,94.45
2018-12-12T01:06:35.990Z,94.42
2018-12-12T01:09:07.446Z,94.17
2018-12-12T01:11:43.796Z,94.22
2018-12-12T01:14:14.490Z,94.63
2018-12-12T01:16:45.373Z,94.48
2018-12-12T01:19:15.631Z,94.75
2018-12-12T01:21:46.127Z,94.37
2018-12-12T01:24:16.314Z,94.53
2018-12-12T01:26:46.529Z,94.57
2018-12-12T01:29:17.135Z,94.56
2018-12-12T01:31:47.414Z,94.58
2018-12-12T01:34:17.787Z,94.53
2018-12-12T01:36:48.199Z,94.56
2018-12-12T01:39:19.282Z,94.46
2018-12-12T01:41:50.011Z,94.57
2018-12-12T01:44:20.168Z,94.43
2018-12-12T01:46:51.043Z,94.39
2018-12-12T01:49:21.215Z,94.58
2018-12-12T01:51:51.597Z,93.92
2018-12-12T01:54:22.147Z,94.15
2018-12-12T01:56:52.584Z,94.21
2018-12-12T01:59:22.816Z,93.95
2018-12-12T02:01:52.932Z,94.14
2018-12-12T02:04:23.719Z,94.23
2018-12-12T02:06:58.418Z,94.01
2018-12-12T02:09:28.607Z,94.26
2018-12-12T02:11:59.931Z,93.87
2018-12-12T02:14:30.972Z,93.95
2018-12-12T02:17:01.202Z,94.04
2018-12-12T02:19:31.412Z,94.36
2018-12-12T02:22:02.379Z,94.12
2018-12-12T02:24:33.041Z,94.18
2018-12-12T02:27:03.889Z,93.96
2018-12-12T02:29:34.039Z,94.12
2018-12-12T02:32:04.301Z,93.92
2018-12-12T02:34:35.217Z,93.86
2018-12-12T02:37:06.104Z,93.74
2018-12-12T02:39:36.287Z,93.72
2018-12-12T02:42:06.671Z,93.21
2018-12-12T02:44:40.993Z,93.04
2018-12-12T02:47:12.307Z,92.65
2018-12-12T02:49:42.361Z,92.95
2018-12-12T02:52:12.870Z,92.60
2018-12-12T02:54:42.968Z,92.65
2018-12-12T02:57:13.454Z,92.67
2018-12-12T02:59:43.738Z,92.25
2018-12-12T03:02:13.957Z,92.53
2018-12-12T03:04:44.371Z,92.68
2018-12-12T03:07:14.661Z,92.61
2018-12-12T03:09:44.606Z,92.05
2018-12-12T03:12:14.882Z,91.95
2018-12-12T03:14:45.224Z,91.70
2018-12-12T03:17:16.389Z,91.42
2018-12-12T03:19:46.610Z,91.07
2018-12-12T03:22:16.854Z,90.97
2018-12-12T03:24:47.765Z,90.86
2018-12-12T03:27:17.917Z,91.06
2018-12-12T03:29:48.215Z,91.25
2018-12-12T03:32:18.348Z,90.51
2018-12-12T03:34:48.548Z,90.69
2018-12-12T03:37:18.696Z,90.95
2018-12-12T03:39:49.097Z,90.92
2018-12-12T03:42:19.843Z,90.87
2018-12-12T03:44:50.243Z,90.91
2018-12-12T03:47:26.227Z,90.66
2018-12-12T03:49:56.349Z,91.13
2018-12-12T03:52:26.610Z,91.06
2018-12-12T03:54:56.840Z,90.52
2018-12-12T03:57:27.594Z,91.06
2018-12-12T03:59:57.616Z,91.47
2018-12-12T04:05:05.502Z,91.30
2018-12-12T04:07:35.438Z,91.46
2018-12-12T04:10:06.194Z,92.11
2018-12-12T04:12:36.250Z,92.23
2018-12-12T04:15:06.672Z,92.06
2018-12-12T04:17:36.770Z,92.94
2018-12-12T04:20:07.203Z,92.44
2018-12-12T04:22:37.249Z,92.92
2018-12-12T04:25:08.334Z,92.82
2018-12-12T04:27:38.433Z,93.01
2018-12-12T04:30:09.261Z,93.11
2018-12-12T04:32:39.336Z,92.69
2018-12-12T04:35:09.522Z,92.90
2018-12-12T04:37:39.703Z,92.48
2018-12-12T04:40:09.850Z,92.73
2018-12-12T04:42:39.776Z,92.62
2018-12-12T04:45:10.122Z,92.67
2018-12-12T04:47:40.362Z,92.62
2018-12-12T04:50:10.486Z,92.74
2018-12-12T04:52:41.769Z,92.24
2018-12-12T04:55:12.025Z,92.24
2018-12-12T04:57:42.146Z,92.48
2018-12-12T05:00:12.439Z,91.76
2018-12-12T05:02:42.896Z,92.08
2018-12-12T05:05:13.210Z,91.99
2018-12-12T05:07:43.572Z,91.73
2018-12-12T05:10:13.976Z,92.10
2018-12-12T05:12:44.300Z,91.81
2018-12-12T05:15:14.695Z,91.86
2018-12-12T05:17:44.899Z,91.71
2018-12-12T05:20:15.113Z,91.29
2018-12-12T05:22:45.345Z,91.58
2018-12-12T05:25:15.471Z,91.45
2018-12-12T05:27:45.678Z,91.67
2018-12-12T05:30:16.682Z,91.59
2018-12-12T05:32:47.772Z,91.72
2018-12-12T05:35:18.136Z,91.95
2018-12-12T05:37:51.790Z,91.86
2018-12-12T05:40:20.991Z,92.03
2018-12-12T05:42:51.049Z,92.07
2018-12-12T05:45:21.548Z,92.26
2018-12-12T05:47:52.314Z,92.21
2018-12-12T05:50:22.360Z,92.01
2018-12-12T05:52:56.444Z,92.15
2018-12-12T05:55:26.830Z,92.05
2018-12-12T05:57:56.859Z,92.37
2018-12-12T06:00:26.979Z,92.46
2018-12-12T06:02:59.941Z,92.32
2018-12-12T06:05:30.377Z,92.20
2018-12-12T06:08:01.056Z,92.04
2018-12-12T06:10:31.230Z,92.11
2018-12-12T06:13:01.661Z,92.60
2018-12-12T06:15:32.619Z,92.57
2018-12-12T06:18:02.952Z,92.54
2018-12-12T06:20:33.208Z,92.65
2018-12-12T06:23:03.428Z,92.95
2018-12-12T06:25:33.642Z,92.87
2018-12-12T06:28:04.213Z,92.48
2018-12-12T06:30:34.700Z,92.46
2018-12-12T06:33:05.985Z,92.26
2018-12-12T06:35:36.042Z,92.50
2018-12-12T06:38:06.224Z,92.57
2018-12-12T06:40:36.481Z,92.07
2018-12-12T06:43:06.337Z,92.21
2018-12-12T06:45:36.481Z,92.24
2018-12-12T06:48:06.561Z,92.06
2018-12-12T06:50:36.804Z,91.92
2018-12-12T06:53:07.026Z,92.46
2018-12-12T06:55:37.128Z,92.16
2018-12-12T06:58:07.188Z,91.84
2018-12-12T07:00:37.237Z,91.63
2018-12-12T07:03:07.155Z,91.33
2018-12-12T07:08:14.588Z,90.97
2018-12-12T07:10:44.538Z,90.53
2018-12-12T07:15:51.849Z,90.59
2018-12-12T07:18:21.872Z,90.17
2018-12-12T07:20:52.632Z,90.18
2018-12-12T07:23:22.617Z,90.12
2018-12-12T07:25:52.901Z,90.98
2018-12-12T07:28:23.042Z,90.92
2018-12-12T07:30:53.546Z,91.05
2018-12-12T07:33:23.659Z,91.26
2018-12-12T07:35:59.338Z,91.33
2018-12-12T07:38:26.237Z,90.96
2018-12-12T07:40:57.036Z,91.01
2018-12-12T07:43:31.869Z,90.51
2018-12-12T07:46:07.609Z,90.35
2018-12-12T07:48:39.835Z,91.27
2018-12-12T07:51:26.836Z,91.51
2018-12-12T07:54:16.712Z,91.30
2018-12-12T07:56:46.790Z,91.30
2018-12-12T07:59:16.907Z,91.24
2018-12-12T08:04:23.401Z,91.20
2018-12-12T08:06:53.713Z,91.02
2018-12-12T08:09:23.971Z,91.36
2018-12-12T08:11:54.076Z,90.55
2018-12-12T08:14:24.284Z,91.57
2018-12-12T08:16:54.723Z,91.14
2018-12-12T08:19:24.795Z,90.37
2018-12-12T08:21:55.381Z,90.22
2018-12-12T08:24:25.307Z,89.84
2018-12-12T08:26:55.339Z,89.45
2018-12-12T08:29:25.656Z,88.99
2018-12-12T08:31:55.997Z,89.24
2018-12-12T08:34:26.349Z,88.58
2018-12-12T08:36:56.433Z,88.57
2018-12-12T08:39:26.528Z,88.75
2018-12-12T08:41:56.416Z,88.33
2018-12-12T08:44:27.467Z,88.35
2018-12-12T08:46:57.426Z,87.54
2018-12-12T08:52:05.168Z,87.90
2018-12-12T08:54:35.452Z,87.29
2018-12-12T08:57:05.769Z,87.34
2018-12-12T08:59:36.114Z,87.30
2018-12-12T09:02:06.157Z,86.60
2018-12-12T09:04:36.425Z,86.79
2018-12-12T09:07:07.435Z,86.40
2018-12-12T09:09:37.539Z,85.74
2018-12-12T09:12:07.738Z,84.43
2018-12-12T09:14:38.948Z,84.01
2018-12-12T09:17:11.067Z,84.50
2018-12-12T09:19:41.516Z,84.08
2018-12-12T09:22:11.776Z,84.05
2018-12-12T09:27:18.701Z,84.16
2018-12-12T09:29:50.615Z,83.79
2018-12-12T09:32:23.759Z,84.17
2018-12-12T09:34:56.078Z,83.81
2018-12-12T09:37:26.170Z,84.74
2018-12-12T09:39:56.107Z,84.65
2018-12-12T09:42:26.088Z,84.27
2018-12-12T09:44:56.183Z,84.00
2018-12-12T09:47:26.921Z,83.75
2018-12-12T09:49:56.846Z,83.70
2018-12-12T09:52:28.783Z,84.10
2018-12-12T09:55:00.790Z,84.54
2018-12-12T09:57:30.793Z,84.47
2018-12-12T10:00:00.706Z,84.41
2018-12-12T10:02:30.817Z,84.01
2018-12-12T10:05:01.807Z,83.78
2018-12-12T10:07:32.843Z,86.00
2018-12-12T10:10:02.840Z,85.50
2018-12-12T10:12:32.906Z,84.91
2018-12-12T10:15:03.038Z,85.68
2018-12-12T10:17:34.650Z,85.77
2018-12-12T10:20:06.071Z,86.03
2018-12-12T10:22:36.211Z,85.37
2018-12-12T10:25:13.151Z,86.24
2018-12-12T10:27:43.539Z,86.86
2018-12-12T10:30:13.789Z,86.03
2018-12-12T10:32:43.805Z,87.58
2018-12-12T10:35:14.663Z,86.82
2018-12-12T10:37:45.418Z,86.81
2018-12-12T10:40:15.646Z,86.93
2018-12-12T10:42:45.598Z,86.41
2018-12-12T10:45:15.604Z,86.61
2018-12-12T10:47:45.696Z,86.27
2018-12-12T10:50:15.668Z,86.48
2018-12-12T10:52:46.576Z,86.33
2018-12-12T10:55:16.602Z,87.30
2018-12-12T10:57:46.556Z,87.99
2018-12-12T11:00:16.656Z,87.48
2018-12-12T11:02:51.147Z,88.09
2018-12-12T11:05:21.541Z,88.04
2018-12-12T11:07:51.725Z,86.84
2018-12-12T11:10:23.068Z,87.26
2018-12-12T11:12:53.722Z,87.64
2018-12-12T11:15:23.656Z,87.21
2018-12-12T11:17:57.845Z,88.18
2018-12-12T11:20:28.544Z,88.53
2018-12-12T11:22:58.713Z,87.91
2018-12-12T11:25:29.913Z,88.43
2018-12-12T11:28:01.280Z,88.25
2018-12-12T11:30:31.199Z,87.15
2018-12-12T11:33:01.622Z,86.58
2018-12-12T11:35:31.723Z,87.07
2018-12-12T11:38:02.617Z,86.66
2018-12-12T11:40:32.987Z,87.71
2018-12-12T11:43:02.989Z,87.42
2018-12-12T11:45:33.908Z,87.80
2018-12-12T11:48:04.049Z,87.60
2018-12-12T11:50:34.060Z,87.42
2018-12-12T11:53:04.468Z,87.80
2018-12-12T11:55:34.610Z,87.42
2018-12-12T11:58:05.839Z,87.37
2018-12-12T12:00:36.395Z,87.05
2018-12-12T12:03:06.708Z,86.72
2018-12-12T12:05:36.736Z,86.94
2018-12-12T12:08:06.873Z,86.29
2018-12-12T12:10:36.872Z,86.01
2018-12-12T12:13:08.938Z,86.69
2018-12-12T12:15:38.994Z,87.23
2018-12-12T12:18:09.315Z,86.86
2018-12-12T12:20:39.443Z,86.51
2018-12-12T12:23:09.451Z,86.82
2018-12-12T12:25:39.356Z,86.38
2018-12-12T12:28:09.500Z,86.46
2018-12-12T12:30:39.535Z,86.30
2018-12-12T12:33:09.956Z,86.19
2018-12-12T12:35:39.819Z,85.98
2018-12-12T12:38:09.763Z,86.15
2018-12-12T12:40:39.847Z,86.28
2018-12-12T12:43:10.041Z,86.15
2018-12-12T12:45:40.182Z,86.00
2018-12-12T12:48:10.240Z,85.76
2018-12-12T12:50:40.444Z,85.89
2018-12-12T12:53:10.342Z,86.07
2018-12-12T12:55:41.346Z,86.04
2018-12-12T12:58:11.764Z,86.15
2018-12-12T13:00:42.329Z,85.39
2018-12-12T13:03:12.586Z,85.53
2018-12-12T13:05:43.661Z,85.50
2018-12-12T13:08:13.734Z,85.27
2018-12-12T13:10:44.042Z,85.13
2018-12-12T13:13:15.004Z,84.68
2018-12-12T13:15:45.611Z,85.08
2018-12-12T13:18:15.996Z,85.11
2018-12-12T13:20:46.084Z,84.75
2018-12-12T13:23:16.568Z,85.16
2018-12-12T13:25:46.458Z,85.21
2018-12-12T13:28:16.666Z,84.87
2018-12-12T13:30:46.797Z,84.95
2018-12-12T13:33:17.525Z,84.34
2018-12-12T13:35:48.565Z,84.59
2018-12-12T13:38:18.787Z,84.43
2018-12-12T13:40:49.144Z,84.71
2018-12-12T13:43:19.110Z,84.69
2018-12-12T13:45:49.436Z,84.60
2018-12-12T13:48:19.744Z,84.53
2018-12-12T13:50:49.773Z,84.25
2018-12-12T13:53:20.005Z,83.86
2018-12-12T13:55:50.169Z,84.60
2018-12-12T13:58:20.242Z,84.19
2018-12-12T14:00:50.470Z,83.92
2018-12-12T14:06:05.983Z,84.38
2018-12-12T14:08:35.985Z,83.81
2018-12-12T14:11:06.212Z,84.18
2018-12-12T14:13:36.351Z,84.21
2018-12-12T14:16:06.733Z,83.61
2018-12-12T14:18:36.783Z,84.02
2018-12-12T14:23:43.267Z,85.67
2018-12-12T14:26:13.340Z,86.45
2018-12-12T14:28:43.555Z,86.50
2018-12-12T14:31:13.683Z,86.81
2018-12-12T14:33:44.745Z,87.49
2018-12-12T14:36:14.975Z,87.19
2018-12-12T14:38:45.039Z,87.22
2018-12-12T14:41:14.914Z,87.49
2018-12-12T14:43:44.812Z,87.64
2018-12-12T14:46:14.856Z,87.49
2018-12-12T14:48:45.721Z,88.25
2018-12-12T14:51:16.187Z,88.25
2018-12-12T14:53:47.077Z,88.17
2018-12-12T14:56:17.038Z,88.36
2018-12-12T14:58:47.081Z,88.69
2018-12-12T15:01:21.000Z,88.56
2018-12-12T15:03:53.951Z,88.74
2018-12-12T15:06:23.991Z,88.45
2018-12-12T15:08:54.595Z,89.10
2018-12-12T15:11:25.875Z,89.22
2018-12-12T15:13:55.857Z,89.89
2018-12-12T15:16:26.264Z,90.15
2018-12-12T15:18:56.333Z,89.67
2018-12-12T15:24:05.020Z,89.42
2018-12-12T15:26:35.071Z,89.41
2018-12-12T15:29:05.661Z,90.18
2018-12-12T15:31:35.865Z,89.93
2018-12-12T15:34:05.972Z,88.42
2018-12-12T15:36:36.777Z,87.59
2018-12-12T15:39:09.146Z,87.61
2018-12-12T15:41:39.172Z,87.83
2018-12-12T15:44:09.481Z,87.26
2018-12-12T15:46:40.058Z,87.33
2018-12-12T15:49:10.956Z,87.85
2018-12-12T15:51:41.011Z,88.26
2018-12-12T15:54:12.091Z,88.12
2018-12-12T15:56:42.031Z,87.58
2018-12-12T15:59:12.567Z,87.48
2018-12-12T16:01:43.350Z,86.92
2018-12-12T16:04:13.496Z,86.90
2018-12-12T16:06:43.660Z,87.04
2018-12-12T16:09:13.712Z,86.97
2018-12-12T16:11:43.848Z,86.86
2018-12-12T16:14:17.603Z,87.13
2018-12-12T16:16:48.098Z,87.68
2018-12-12T16:19:18.433Z,87.66
2018-12-12T16:21:48.334Z,87.26
2018-12-12T16:24:26.056Z,87.67
2018-12-12T16:26:56.602Z,87.47
2018-12-12T16:29:27.083Z,87.27
2018-12-12T16:31:56.998Z,87.34
2018-12-12T16:34:27.065Z,87.18
2018-12-12T16:36:56.988Z,86.93
2018-12-12T16:39:27.027Z,87.49
2018-12-12T16:41:57.040Z,87.69
2018-12-12T16:44:27.202Z,87.13
2018-12-12T16:47:02.858Z,87.81
2018-12-12T16:52:10.053Z,87.58
2018-12-12T16:54:40.137Z,87.83
2018-12-12T16:57:10.771Z,87.32
2018-12-12T16:59:40.966Z,87.12
2018-12-12T17:02:11.057Z,87.65
2018-12-12T17:04:40.953Z,87.83
2018-12-12T17:07:12.135Z,88.11
2018-12-12T17:09:42.104Z,87.65
2018-12-12T17:12:12.141Z,87.40
2018-12-12T17:14:42.352Z,87.03
2018-12-12T17:17:12.485Z,87.23
2018-12-12T17:19:42.729Z,87.18
2018-12-12T17:22:12.907Z,86.63
2018-12-12T17:24:42.967Z,86.72
2018-12-12T17:27:12.970Z,87.15
2018-12-12T17:29:43.014Z,86.58
2018-12-12T17:32:13.294Z,87.02
2018-12-12T17:34:43.387Z,86.70
2018-12-12T17:37:13.619Z,86.46
2018-12-12T17:39:43.757Z,86.60
2018-12-12T17:42:13.653Z,86.67
2018-12-12T17:44:43.632Z,86.10
2018-12-12T17:47:13.724Z,86.05
2018-12-12T17:49:43.699Z,86.08
2018-12-12T17:52:13.618Z,86.41
2018-12-12T17:54:43.537Z,86.04
2018-12-12T17:57:13.650Z,85.64
2018-12-12T17:59:43.803Z,85.42
2018-12-12T18:02:13.773Z,84.78
2018-12-12T18:05:03.759Z,84.75
2018-12-12T18:07:35.299Z,84.57
2018-12-12T18:10:06.955Z,84.47
2018-12-12T18:12:36.878Z,84.74
2018-12-12T18:15:07.205Z,84.70
2018-12-12T18:17:39.264Z,85.00
2018-12-12T18:20:09.247Z,85.20
2018-12-12T18:22:39.781Z,85.13
2018-12-12T18:25:11.668Z,85.08
2018-12-12T18:27:41.587Z,85.15
2018-12-12T18:30:11.526Z,84.78
2018-12-12T18:32:43.782Z,85.82
2018-12-12T18:35:21.943Z,85.41
2018-12-12T18:37:52.563Z,85.10
2018-12-12T18:40:22.835Z,86.01
2018-12-12T18:42:54.785Z,84.86
2018-12-12T18:45:25.420Z,85.80
2018-12-12T18:47:55.368Z,85.66
2018-12-12T18:50:28.036Z,85.02
2018-12-12T18:53:04.234Z,84.68
2018-12-12T18:55:34.283Z,84.86
2018-12-12T18:58:05.607Z,84.31
2018-12-12T19:00:35.545Z,84.63
2018-12-12T19:03:06.189Z,84.65
2018-12-12T19:05:36.294Z,84.37
2018-12-12T19:08:07.225Z,84.42
2018-12-12T19:10:37.252Z,84.24
2018-12-12T19:13:08.082Z,84.32
2018-12-12T19:15:38.168Z,84.01
2018-12-12T19:18:08.207Z,84.30
2018-12-12T19:20:39.156Z,84.20
2018-12-12T19:23:09.575Z,84.56
2018-12-12T19:28:17.946Z,84.58
2018-12-12T19:30:48.778Z,84.39
2018-12-12T19:33:22.927Z,83.97
2018-12-12T19:35:52.805Z,84.75
2018-12-12T19:41:01.059Z,85.53
2018-12-12T19:43:31.129Z,86.23
2018-12-12T19:46:01.205Z,86.35
2018-12-12T19:48:31.591Z,86.96
2018-12-12T19:51:02.738Z,87.71
2018-12-12T19:53:33.048Z,87.92
2018-12-12T19:56:03.059Z,86.98
2018-12-12T19:58:34.571Z,86.54
2018-12-12T20:01:09.443Z,86.53
2018-12-12T20:03:39.412Z,86.82
2018-12-12T20:06:09.446Z,87.00
2018-12-12T20:08:40.036Z,86.92
2018-12-12T20:11:10.212Z,86.37
2018-12-12T20:13:40.180Z,86.38
2018-12-12T20:16:10.166Z,86.83
2018-12-12T20:18:40.338Z,85.50
2018-12-12T20:21:11.257Z,87.14
2018-12-12T20:23:41.157Z,87.53
2018-12-12T20:26:11.492Z,87.84
2018-12-12T20:31:24.594Z,86.91
2018-12-12T20:33:54.665Z,86.22
2018-12-12T20:36:28.668Z,86.10
2018-12-12T20:38:58.692Z,86.18
2018-12-12T20:41:28.784Z,86.47
2018-12-12T20:43:59.547Z,87.39
2018-12-12T20:46:29.677Z,88.03
2018-12-12T20:49:00.606Z,87.93
2018-12-12T20:51:31.023Z,87.98
2018-12-12T20:54:01.051Z,88.33
2018-12-12T20:56:31.080Z,88.10
2018-12-12T20:59:01.327Z,87.40
2018-12-12T21:01:31.871Z,87.18
2018-12-12T21:04:02.031Z,86.61
2018-12-12T21:06:32.756Z,86.24
2018-12-12T21:09:03.414Z,84.83
2018-12-12T21:11:34.586Z,84.36
2018-12-12T21:14:05.387Z,83.69
2018-12-12T21:16:35.635Z,83.87
2018-12-12T21:19:06.057Z,83.50
2018-12-12T21:21:36.609Z,83.92
2018-12-12T21:24:06.751Z,83.18
2018-12-12T21:26:36.884Z,83.20
2018-12-12T21:29:10.666Z,82.41
2018-12-12T21:31:40.702Z,82.57
2018-12-12T21:34:11.574Z,82.56
2018-12-12T21:36:42.473Z,82.34
2018-12-12T21:39:12.601Z,82.71
2018-12-12T21:41:43.777Z,82.27
2018-12-12T21:44:13.898Z,82.04
2018-12-12T21:46:43.935Z,82.54
2018-12-12T21:49:13.886Z,83.19
2018-12-12T21:51:43.872Z,83.27
2018-12-12T21:54:14.032Z,83.78
2018-12-12T21:56:45.021Z,83.50
2018-12-12T21:59:15.281Z,84.11
2018-12-12T22:01:49.575Z,84.07
2018-12-12T22:04:19.958Z,83.93
2018-12-12T22:06:50.362Z,83.94
2018-12-12T22:09:20.461Z,83.76
2018-12-12T22:11:50.610Z,83.86
2018-12-12T22:14:20.807Z,83.90
2018-12-12T22:16:52.073Z,84.62
2018-12-12T22:19:22.336Z,84.52
2018-12-12T22:21:53.179Z,84.70
2018-12-12T22:24:23.533Z,84.93
2018-12-12T22:26:54.469Z,85.13
2018-12-12T22:29:25.202Z,85.24
2018-12-12T22:31:55.547Z,85.15
2018-12-12T22:34:27.436Z,84.42
2018-12-12T22:37:01.487Z,85.17
2018-12-12T22:39:32.105Z,84.92
2018-12-12T22:42:02.358Z,85.52
2018-12-12T22:44:32.565Z,85.56
2018-12-12T22:47:02.700Z,85.18
2018-12-12T22:52:09.546Z,85.19
2018-12-12T22:54:39.483Z,85.64
2018-12-12T22:57:09.599Z,86.01
2018-12-12T22:59:40.282Z,86.40
2018-12-12T23:02:10.670Z,86.58
2018-12-12T23:04:40.761Z,87.00
2018-12-12T23:07:11.006Z,86.57
2018-12-12T23:09:41.461Z,85.95
2018-12-12T23:12:11.624Z,85.84
2018-12-12T23:14:42.816Z,85.58
2018-12-12T23:17:12.944Z,85.28
2018-12-12T23:19:43.117Z,85.76
2018-12-12T23:22:15.169Z,85.57
2018-12-12T23:24:45.664Z,85.55
2018-12-12T23:27:15.787Z,85.72
2018-12-12T23:29:49.921Z,86.77
2018-12-12T23:32:20.165Z,86.01
2018-12-12T23:34:50.353Z,85.52
2018-12-12T23:39:57.791Z,85.17
2018-12-12T23:42:27.825Z,85.67
2018-12-12T23:44:58.613Z,86.06
2018-12-12T23:47:28.885Z,85.88
2018-12-12T23:49:59.196Z,85.88
2018-12-12T23:52:29.302Z,85.56
2018-12-12T23:55:00.490Z,86.17
2018-12-12T23:57:30.981Z,86.00
